sensor_id;sensor_type;location;lat;lon;timestamp;pressure;altitude;pressure_sealevel;temperature;humidity
76397;BME280;66045;51.622;5.526;2023-01-26T00:01:26;102555.69;;;16.00;41.23
76397;BME280;66045;51.622;5.526;2023-01-26T00:03:55;102561.88;;;16.00;41.22
76397;BME280;66045;51.622;5.526;2023-01-26T00:06:22;102553.88;;;15.97;41.34
76397;BME280;66045;51.622;5.526;2023-01-26T00:08:52;102552.13;;;15.98;41.27
76397;BME280;66045;51.622;5.526;2023-01-26T00:11:18;102544.22;;;16.07;41.19
76397;BME280;66045;51.622;5.526;2023-01-26T00:13:44;102545.91;;;15.97;41.23
76397;BME280;66045;51.622;5.526;2023-01-26T00:16:12;102542.38;;;15.97;41.26
76397;BME280;66045;51.622;5.526;2023-01-26T00:18:39;102536.16;;;15.95;41.42
76397;BME280;66045;51.622;5.526;2023-01-26T00:21:05;102537.03;;;15.92;41.40
76397;BME280;66045;51.622;5.526;2023-01-26T00:23:32;102539.69;;;15.92;41.42
76397;BME280;66045;51.622;5.526;2023-01-26T00:25:58;102540.56;;;15.91;41.40
76397;BME280;66045;51.622;5.526;2023-01-26T00:28:24;102530.81;;;15.88;41.54
76397;BME280;66045;51.622;5.526;2023-01-26T00:30:49;102535.22;;;15.89;41.28
76397;BME280;66045;51.622;5.526;2023-01-26T00:33:15;102525.47;;;15.87;41.39
76397;BME280;66045;51.622;5.526;2023-01-26T00:35:40;102526.34;;;15.87;41.48
76397;BME280;66045;51.622;5.526;2023-01-26T00:38:11;102519.28;;;15.86;41.43
76397;BME280;66045;51.622;5.526;2023-01-26T00:40:37;102516.59;;;15.85;41.45
76397;BME280;66045;51.622;5.526;2023-01-26T00:43:02;102521.00;;;15.84;41.42
76397;BME280;66045;51.622;5.526;2023-01-26T00:45:28;102516.59;;;15.83;41.37
76397;BME280;66045;51.622;5.526;2023-01-26T00:47:53;102521.88;;;15.82;41.39
76397;BME280;66045;51.622;5.526;2023-01-26T00:50:18;102513.91;;;15.82;41.44
76397;BME280;66045;51.622;5.526;2023-01-26T00:52:44;102503.25;;;15.79;41.53
76397;BME280;66045;51.622;5.526;2023-01-26T00:55:09;102503.28;;;15.80;41.67
76397;BME280;66045;51.622;5.526;2023-01-26T00:57:35;102500.59;;;15.76;41.43
76397;BME280;66045;51.622;5.526;2023-01-26T01:00:00;102505.94;;;15.77;41.40
76397;BME280;66045;51.622;5.526;2023-01-26T01:02:25;102508.56;;;15.76;41.36
76397;BME280;66045;51.622;5.526;2023-01-26T01:04:51;102501.47;;;15.76;41.34
76397;BME280;66045;51.622;5.526;2023-01-26T01:07:16;102497.06;;;15.77;41.46
76397;BME280;66045;51.622;5.526;2023-01-26T01:09:41;102482.91;;;15.75;41.28
76397;BME280;66045;51.622;5.526;2023-01-26T01:12:09;102486.41;;;15.74;41.59
76397;BME280;66045;51.622;5.526;2023-01-26T01:14:34;102484.66;;;15.74;41.51
76397;BME280;66045;51.622;5.526;2023-01-26T01:16:59;102490.81;;;15.73;41.31
76397;BME280;66045;51.622;5.526;2023-01-26T01:19:25;102499.69;;;15.72;41.42
76397;BME280;66045;51.622;5.526;2023-01-26T01:21:51;102497.91;;;15.71;41.45
76397;BME280;66045;51.622;5.526;2023-01-26T01:24:16;102489.03;;;15.71;41.48
76397;BME280;66045;51.622;5.526;2023-01-26T01:26:42;102487.25;;;15.68;41.47
76397;BME280;66045;51.622;5.526;2023-01-26T01:29:11;102481.91;;;15.66;41.29
76397;BME280;66045;51.622;5.526;2023-01-26T01:31:37;102481.06;;;15.69;41.34
76397;BME280;66045;51.622;5.526;2023-01-26T01:34:02;102488.06;;;15.65;41.37
76397;BME280;66045;51.622;5.526;2023-01-26T01:36:28;102489.84;;;15.65;41.41
76397;BME280;66045;51.622;5.526;2023-01-26T01:38:55;102489.84;;;15.65;41.59
76397;BME280;66045;51.622;5.526;2023-01-26T01:41:21;102489.84;;;15.65;41.62
76397;BME280;66045;51.622;5.526;2023-01-26T01:43:47;102478.34;;;15.63;41.57
76397;BME280;66045;51.622;5.526;2023-01-26T01:46:28;102488.03;;;15.62;41.61
76397;BME280;66045;51.622;5.526;2023-01-26T01:49:02;102480.09;;;15.61;41.56
76397;BME280;66045;51.622;5.526;2023-01-26T01:51:40;102494.19;;;15.60;41.50
76397;BME280;66045;51.622;5.526;2023-01-26T01:54:10;102493.34;;;15.61;41.46
76397;BME280;66045;51.622;5.526;2023-01-26T01:56:38;102496.88;;;15.58;41.46
76397;BME280;66045;51.622;5.526;2023-01-26T01:59:07;102493.31;;;15.58;41.56
76397;BME280;66045;51.622;5.526;2023-01-26T02:01:34;102487.13;;;15.57;41.74
76397;BME280;66045;51.622;5.526;2023-01-26T02:04:01;102488.00;;;15.56;41.51
76397;BME280;66045;51.622;5.526;2023-01-26T02:06:39;102484.47;;;15.57;41.48
76397;BME280;66045;51.622;5.526;2023-01-26T02:09:06;102484.41;;;15.54;41.58
76397;BME280;66045;51.622;5.526;2023-01-26T02:11:53;102480.00;;;15.53;41.54
76397;BME280;66045;51.622;5.526;2023-01-26T02:14:18;102472.94;;;15.52;41.56
76397;BME280;66045;51.622;5.526;2023-01-26T02:16:44;102467.63;;;15.52;41.60
76397;BME280;66045;51.622;5.526;2023-01-26T02:19:15;102459.63;;;15.51;41.53
76397;BME280;66045;51.622;5.526;2023-01-26T02:21:43;102464.94;;;15.49;41.56
76397;BME280;66045;51.622;5.526;2023-01-26T02:24:27;102463.16;;;15.50;41.54
76397;BME280;66045;51.622;5.526;2023-01-26T02:26:56;102460.50;;;15.48;41.65
76397;BME280;66045;51.622;5.526;2023-01-26T02:29:22;102462.25;;;15.48;41.63
76397;BME280;66045;51.622;5.526;2023-01-26T02:31:47;102456.06;;;15.47;41.69
76397;BME280;66045;51.622;5.526;2023-01-26T02:34:13;102464.00;;;15.45;41.63
76397;BME280;66045;51.622;5.526;2023-01-26T02:36:38;102460.47;;;15.45;41.57
76397;BME280;66045;51.622;5.526;2023-01-26T02:41:49;102456.03;;;15.44;41.51
76397;BME280;66045;51.622;5.526;2023-01-26T02:44:35;102456.03;;;15.44;41.71
76397;BME280;66045;51.622;5.526;2023-01-26T02:47:10;102448.94;;;15.43;41.60
76397;BME280;66045;51.622;5.526;2023-01-26T02:49:35;102448.91;;;15.40;41.59
76397;BME280;66045;51.622;5.526;2023-01-26T02:52:18;102451.66;;;15.51;41.57
76397;BME280;66045;51.622;5.526;2023-01-26T02:54:44;102452.50;;;15.43;41.78
76397;BME280;66045;51.622;5.526;2023-01-26T02:57:27;102453.34;;;15.42;41.68
76397;BME280;66045;51.622;5.526;2023-01-26T02:59:53;102454.25;;;15.43;41.70
76397;BME280;66045;51.622;5.526;2023-01-26T03:02:19;102448.09;;;15.44;41.71
76397;BME280;66045;51.622;5.526;2023-01-26T03:04:44;102446.34;;;15.46;41.52
76397;BME280;66045;51.622;5.526;2023-01-26T03:07:09;102447.22;;;15.48;41.72
76397;BME280;66045;51.622;5.526;2023-01-26T03:09:35;102446.38;;;15.51;41.45
76397;BME280;66045;51.622;5.526;2023-01-26T03:12:00;102442.84;;;15.53;41.33
76397;BME280;66045;51.622;5.526;2023-01-26T03:14:26;102443.75;;;15.57;41.30
76397;BME280;66045;51.622;5.526;2023-01-26T03:16:51;102444.66;;;15.59;41.14
76397;BME280;66045;51.622;5.526;2023-01-26T03:19:16;102444.69;;;15.62;41.05
76397;BME280;66045;51.622;5.526;2023-01-26T03:22:00;102446.50;;;15.66;41.10
76397;BME280;66045;51.622;5.526;2023-01-26T03:24:44;102435.94;;;15.69;40.87
76397;BME280;66045;51.622;5.526;2023-01-26T03:27:37;102440.41;;;15.72;40.84
76397;BME280;66045;51.622;5.526;2023-01-26T03:30:04;102439.53;;;15.74;40.89
76397;BME280;66045;51.622;5.526;2023-01-26T03:32:29;102437.75;;;15.76;40.79
76397;BME280;66045;51.622;5.526;2023-01-26T03:34:55;102446.63;;;15.78;40.59
76397;BME280;66045;51.622;5.526;2023-01-26T03:37:20;102441.34;;;15.80;40.84
76397;BME280;66045;51.622;5.526;2023-01-26T03:39:50;102442.22;;;15.80;40.89
76397;BME280;66045;51.622;5.526;2023-01-26T03:42:35;102432.50;;;15.81;40.76
76397;BME280;66045;51.622;5.526;2023-01-26T03:45:19;102433.38;;;15.81;40.75
76397;BME280;66045;51.622;5.526;2023-01-26T03:48:10;102442.22;;;15.82;40.81
76397;BME280;66045;51.622;5.526;2023-01-26T03:50:55;102434.25;;;15.82;40.69
76397;BME280;66045;51.622;5.526;2023-01-26T03:53:39;102433.38;;;15.81;40.71
76397;BME280;66045;51.622;5.526;2023-01-26T03:56:23;102430.72;;;15.80;40.51
76397;BME280;66045;51.622;5.526;2023-01-26T03:58:53;102440.44;;;15.79;40.80
76397;BME280;66045;51.622;5.526;2023-01-26T04:01:25;102428.09;;;15.84;40.94
76397;BME280;66045;51.622;5.526;2023-01-26T04:03:53;102428.94;;;15.79;40.76
76397;BME280;66045;51.622;5.526;2023-01-26T04:06:40;102430.72;;;15.77;40.94
76397;BME280;66045;51.622;5.526;2023-01-26T04:09:24;102432.44;;;15.76;40.94
76397;BME280;66045;51.622;5.526;2023-01-26T04:11:49;102430.69;;;15.75;40.92
76397;BME280;66045;51.622;5.526;2023-01-26T04:14:15;102428.00;;;15.72;40.92
76397;BME280;66045;51.622;5.526;2023-01-26T04:17:00;102437.75;;;15.72;41.03
76397;BME280;66045;51.622;5.526;2023-01-26T04:19:45;102429.78;;;15.72;41.08
76397;BME280;66045;51.622;5.526;2023-01-26T04:22:29;102429.75;;;15.70;41.09
76397;BME280;66045;51.622;5.526;2023-01-26T04:24:55;102431.50;;;15.68;41.09
76397;BME280;66045;51.622;5.526;2023-01-26T04:27:23;102424.38;;;15.65;41.23
76397;BME280;66045;51.622;5.526;2023-01-26T04:29:48;102427.03;;;15.64;41.27
76397;BME280;66045;51.622;5.526;2023-01-26T04:32:14;102427.03;;;15.64;41.34
76397;BME280;66045;51.622;5.526;2023-01-26T04:34:39;102424.34;;;15.62;41.42
76397;BME280;66045;51.622;5.526;2023-01-26T04:37:04;102429.66;;;15.61;41.37
76397;BME280;66045;51.622;5.526;2023-01-26T04:39:30;102434.09;;;15.60;41.55
76397;BME280;66045;51.622;5.526;2023-01-26T04:41:55;102425.22;;;15.58;41.49
76397;BME280;66045;51.622;5.526;2023-01-26T04:44:20;102438.47;;;15.58;41.58
76397;BME280;66045;51.622;5.526;2023-01-26T04:46:46;102434.03;;;15.56;41.75
76397;BME280;66045;51.622;5.526;2023-01-26T04:49:13;102441.97;;;15.54;41.52
76397;BME280;66045;51.622;5.526;2023-01-26T04:51:38;102430.47;;;15.54;41.69
76397;BME280;66045;51.622;5.526;2023-01-26T04:54:04;102430.47;;;15.52;41.55
76397;BME280;66045;51.622;5.526;2023-01-26T04:56:32;102434.91;;;15.52;41.81
76397;BME280;66045;51.622;5.526;2023-01-26T04:59:00;102440.19;;;15.50;41.74
76397;BME280;66045;51.622;5.526;2023-01-26T05:01:26;102441.94;;;15.50;41.48
76397;BME280;66045;51.622;5.526;2023-01-26T05:03:52;102433.09;;;15.49;41.84
76397;BME280;66045;51.622;5.526;2023-01-26T05:06:17;102433.94;;;15.48;41.98
76397;BME280;66045;51.622;5.526;2023-01-26T05:08:43;102428.66;;;15.47;41.77
76397;BME280;66045;51.622;5.526;2023-01-26T05:11:08;102429.50;;;15.45;41.69
76397;BME280;66045;51.622;5.526;2023-01-26T05:13:33;102425.97;;;15.45;41.85
76397;BME280;66045;51.622;5.526;2023-01-26T05:16:03;102425.94;;;15.40;42.09
76397;BME280;66045;51.622;5.526;2023-01-26T05:18:28;102430.38;;;15.43;41.78
76397;BME280;66045;51.622;5.526;2023-01-26T05:20:54;102424.19;;;15.41;41.78
76397;BME280;66045;51.622;5.526;2023-01-26T05:23:19;102426.84;;;15.41;41.76
76397;BME280;66045;51.622;5.526;2023-01-26T05:25:44;102428.59;;;15.40;41.99
76397;BME280;66045;51.622;5.526;2023-01-26T05:28:10;102430.34;;;15.40;41.95
76397;BME280;66045;51.622;5.526;2023-01-26T05:30:35;102431.22;;;15.39;42.27
76397;BME280;66045;51.622;5.526;2023-01-26T05:33:05;102428.56;;;15.39;41.95
76397;BME280;66045;51.622;5.526;2023-01-26T05:35:31;102425.00;;;15.37;42.27
76397;BME280;66045;51.622;5.526;2023-01-26T05:37:56;102430.31;;;15.37;42.07
76397;BME280;66045;51.622;5.526;2023-01-26T05:40:22;102433.84;;;15.36;42.07
76397;BME280;66045;51.622;5.526;2023-01-26T05:42:48;102427.63;;;15.34;41.99
76397;BME280;66045;51.622;5.526;2023-01-26T05:45:14;102430.31;;;15.35;42.05
76397;BME280;66045;51.622;5.526;2023-01-26T05:47:42;102429.41;;;15.33;42.35
76397;BME280;66045;51.622;5.526;2023-01-26T05:50:09;102426.75;;;15.33;42.03
76397;BME280;66045;51.622;5.526;2023-01-26T05:52:34;102429.38;;;15.32;42.13
76397;BME280;66045;51.622;5.526;2023-01-26T05:55:00;102427.63;;;15.31;41.99
76397;BME280;66045;51.622;5.526;2023-01-26T05:57:25;102432.91;;;15.31;41.79
76397;BME280;66045;51.622;5.526;2023-01-26T05:59:50;102432.91;;;15.29;42.34
76397;BME280;66045;51.622;5.526;2023-01-26T06:02:16;102436.47;;;15.30;41.93
76397;BME280;66045;51.622;5.526;2023-01-26T06:04:41;102433.78;;;15.27;42.01
76397;BME280;66045;51.622;5.526;2023-01-26T06:07:06;102434.66;;;15.27;42.19
76397;BME280;66045;51.622;5.526;2023-01-26T06:09:32;102439.09;;;15.27;42.06
76397;BME280;66045;51.622;5.526;2023-01-26T06:11:57;102440.81;;;15.25;42.09
76397;BME280;66045;51.622;5.526;2023-01-26T06:14:22;102443.47;;;15.25;42.20
76397;BME280;66045;51.622;5.526;2023-01-26T06:16:48;102450.53;;;15.24;41.96
76397;BME280;66045;51.622;5.526;2023-01-26T06:19:13;102436.41;;;15.24;42.47
76397;BME280;66045;51.622;5.526;2023-01-26T06:21:39;102450.50;;;15.22;42.34
76397;BME280;66045;51.622;5.526;2023-01-26T06:24:05;102439.91;;;15.22;42.29
76397;BME280;66045;51.622;5.526;2023-01-26T06:26:30;102441.69;;;15.22;42.25
76397;BME280;66045;51.622;5.526;2023-01-26T06:28:55;102439.00;;;15.20;42.24
76397;BME280;66045;51.622;5.526;2023-01-26T06:31:21;102433.66;;;15.17;42.19
76397;BME280;66045;51.622;5.526;2023-01-26T06:33:54;102440.75;;;15.18;42.31
76397;BME280;66045;51.622;5.526;2023-01-26T06:36:20;102451.38;;;15.20;42.35
76397;BME280;66045;51.622;5.526;2023-01-26T06:38:47;102449.59;;;15.19;42.26
76397;BME280;66045;51.622;5.526;2023-01-26T06:41:13;102449.59;;;15.20;42.23
76397;BME280;66045;51.622;5.526;2023-01-26T06:43:39;102452.28;;;15.22;42.06
76397;BME280;66045;51.622;5.526;2023-01-26T06:46:05;102453.19;;;15.24;42.01
76397;BME280;66045;51.622;5.526;2023-01-26T06:48:32;102450.53;;;15.26;41.96
76397;BME280;66045;51.622;5.526;2023-01-26T06:53:46;102452.38;;;15.30;41.75
76397;BME280;66045;51.622;5.526;2023-01-26T06:56:11;102455.06;;;15.33;41.73
76397;BME280;66045;51.622;5.526;2023-01-26T06:58:37;102460.34;;;15.34;41.70
76397;BME280;66045;51.622;5.526;2023-01-26T07:01:03;102457.72;;;15.37;41.62
76397;BME280;66045;51.622;5.526;2023-01-26T07:03:28;102453.34;;;15.38;41.73
76397;BME280;66045;51.622;5.526;2023-01-26T07:05:54;102450.72;;;15.41;41.66
76397;BME280;66045;51.622;5.526;2023-01-26T07:08:20;102461.31;;;15.42;41.66
76397;BME280;66045;51.622;5.526;2023-01-26T07:10:45;102464.84;;;15.43;41.74
76397;BME280;66045;51.622;5.526;2023-01-26T07:13:11;102471.06;;;15.45;41.56
76397;BME280;66045;51.622;5.526;2023-01-26T07:15:36;102473.75;;;15.47;41.59
76397;BME280;66045;51.622;5.526;2023-01-26T07:18:01;102465.78;;;15.48;41.65
76397;BME280;66045;51.622;5.526;2023-01-26T07:20:27;102463.16;;;15.50;41.69
76397;BME280;66045;51.622;5.526;2023-01-26T07:22:52;102467.63;;;15.52;41.59
76397;BME280;66045;51.622;5.526;2023-01-26T07:25:18;102468.50;;;15.53;41.70
76397;BME280;66045;51.622;5.526;2023-01-26T07:27:43;102467.63;;;15.54;41.83
76397;BME280;66045;51.622;5.526;2023-01-26T07:30:10;102467.63;;;15.54;41.68
76397;BME280;66045;51.622;5.526;2023-01-26T07:32:36;102464.09;;;15.53;41.72
76397;BME280;66045;51.622;5.526;2023-01-26T07:35:02;102461.47;;;15.55;41.96
76397;BME280;66045;51.622;5.526;2023-01-26T07:37:28;102468.53;;;15.56;41.79
76397;BME280;66045;51.622;5.526;2023-01-26T07:39:53;102465.00;;;15.57;41.80
76397;BME280;66045;51.622;5.526;2023-01-26T07:42:19;102462.34;;;15.57;41.68
76397;BME280;66045;51.622;5.526;2023-01-26T07:44:44;102468.53;;;15.56;41.73
76397;BME280;66045;51.622;5.526;2023-01-26T07:47:10;102476.50;;;15.56;41.73
76397;BME280;66045;51.622;5.526;2023-01-26T07:49:35;102475.59;;;15.55;42.07
76397;BME280;66045;51.622;5.526;2023-01-26T07:52:01;102479.13;;;15.56;41.87
76397;BME280;66045;51.622;5.526;2023-01-26T07:54:26;102480.03;;;15.56;41.91
76397;BME280;66045;51.622;5.526;2023-01-26T07:56:52;102482.69;;;15.56;41.96
76397;BME280;66045;51.622;5.526;2023-01-26T07:59:19;102483.56;;;15.55;42.00
76397;BME280;66045;51.622;5.526;2023-01-26T08:01:44;102488.00;;;15.56;41.98
76397;BME280;66045;51.622;5.526;2023-01-26T08:04:10;102495.94;;;15.56;42.17
76397;BME280;66045;51.622;5.526;2023-01-26T08:06:36;102489.75;;;15.56;42.29
76397;BME280;66045;51.622;5.526;2023-01-26T08:09:02;102492.41;;;15.56;42.21
76397;BME280;66045;51.622;5.526;2023-01-26T08:11:27;102493.28;;;15.56;42.51
76397;BME280;66045;51.622;5.526;2023-01-26T08:13:54;102495.09;;;15.57;42.33
76397;BME280;66045;51.622;5.526;2023-01-26T08:16:19;102489.78;;;15.57;42.63
76397;BME280;66045;51.622;5.526;2023-01-26T08:18:45;102496.84;;;15.55;42.57
76397;BME280;66045;51.622;5.526;2023-01-26T08:21:12;102503.06;;;15.57;42.37
76397;BME280;66045;51.622;5.526;2023-01-26T08:23:38;102502.16;;;15.58;42.57
76397;BME280;66045;51.622;5.526;2023-01-26T08:26:05;102504.81;;;15.58;42.78
76397;BME280;66045;51.622;5.526;2023-01-26T08:28:31;102499.50;;;15.58;42.65
76397;BME280;66045;51.622;5.526;2023-01-26T08:31:03;102497.75;;;15.57;42.59
76397;BME280;66045;51.622;5.526;2023-01-26T08:33:29;102503.97;;;15.61;42.74
76397;BME280;66045;51.622;5.526;2023-01-26T08:36:00;102503.97;;;15.61;42.68
76397;BME280;66045;51.622;5.526;2023-01-26T08:38:25;102506.63;;;15.65;42.63
76397;BME280;66045;51.622;5.526;2023-01-26T08:40:51;102518.13;;;15.61;42.92
76397;BME280;66045;51.622;5.526;2023-01-26T08:43:17;102514.59;;;15.61;42.89
76397;BME280;66045;51.622;5.526;2023-01-26T08:45:46;102516.34;;;15.62;42.95
76397;BME280;66045;51.622;5.526;2023-01-26T08:48:11;102506.63;;;15.62;42.62
76397;BME280;66045;51.622;5.526;2023-01-26T08:50:37;102511.94;;;15.62;42.95
76397;BME280;66045;51.622;5.526;2023-01-26T08:53:02;102514.56;;;15.62;42.96
76397;BME280;66045;51.622;5.526;2023-01-26T08:55:27;102516.34;;;15.62;43.05
76397;BME280;66045;51.622;5.526;2023-01-26T08:57:53;102508.38;;;15.60;43.13
76397;BME280;66045;51.622;5.526;2023-01-26T09:00:20;102507.53;;;15.63;42.94
76397;BME280;66045;51.622;5.526;2023-01-26T09:02:46;102507.53;;;15.63;43.11
76397;BME280;66045;51.622;5.526;2023-01-26T09:05:13;102503.97;;;15.62;43.21
76397;BME280;66045;51.622;5.526;2023-01-26T09:07:38;102502.22;;;15.63;43.12
76397;BME280;66045;51.622;5.526;2023-01-26T09:10:05;102512.84;;;15.63;43.21
76397;BME280;66045;51.622;5.526;2023-01-26T09:12:30;102512.84;;;15.63;43.19
76397;BME280;66045;51.622;5.526;2023-01-26T09:14:55;102510.19;;;15.64;43.26
76397;BME280;66045;51.622;5.526;2023-01-26T09:17:21;102504.88;;;15.64;43.30
76397;BME280;66045;51.622;5.526;2023-01-26T09:19:46;102515.50;;;15.64;43.24
76397;BME280;66045;51.622;5.526;2023-01-26T09:22:11;102520.81;;;15.64;43.13
76397;BME280;66045;51.622;5.526;2023-01-26T09:24:37;102522.56;;;15.64;43.33
76397;BME280;66045;51.622;5.526;2023-01-26T09:27:02;102516.38;;;15.63;43.40
76397;BME280;66045;51.622;5.526;2023-01-26T09:29:27;102519.91;;;15.64;43.30
76397;BME280;66045;51.622;5.526;2023-01-26T09:31:53;102522.56;;;15.64;43.38
76397;BME280;66045;51.622;5.526;2023-01-26T09:34:18;102534.97;;;15.63;43.52
76397;BME280;66045;51.622;5.526;2023-01-26T09:36:43;102529.66;;;15.63;43.17
76397;BME280;66045;51.622;5.526;2023-01-26T09:39:09;102528.75;;;15.63;43.56
76397;BME280;66045;51.622;5.526;2023-01-26T09:44:26;102526.13;;;15.63;43.63
76397;BME280;66045;51.622;5.526;2023-01-26T09:47:30;102528.75;;;15.64;43.57
76397;BME280;66045;51.622;5.526;2023-01-26T09:50:05;102520.78;;;15.61;43.58
76397;BME280;66045;51.622;5.526;2023-01-26T09:55:53;102516.34;;;15.62;43.70
76397;BME280;66045;51.622;5.526;2023-01-26T09:58:38;102529.66;;;15.65;43.68
76397;BME280;66045;51.622;5.526;2023-01-26T10:01:08;102524.31;;;15.62;43.83
76397;BME280;66045;51.622;5.526;2023-01-26T10:03:38;102526.13;;;15.63;43.77
76397;BME280;66045;51.622;5.526;2023-01-26T10:06:13;102524.34;;;15.63;43.89
76397;BME280;66045;51.622;5.526;2023-01-26T10:08:43;102519.88;;;15.61;43.72
76397;BME280;66045;51.622;5.526;2023-01-26T10:11:33;102527.00;;;15.63;43.73
76397;BME280;66045;51.622;5.526;2023-01-26T10:14:27;102525.19;;;15.62;43.75
76397;BME280;66045;51.622;5.526;2023-01-26T10:16:56;102528.75;;;15.61;43.88
76397;BME280;66045;51.622;5.526;2023-01-26T10:19:33;102518.13;;;15.61;43.77
76397;BME280;66045;51.622;5.526;2023-01-26T10:22:05;102522.53;;;15.61;43.87
76397;BME280;66045;51.622;5.526;2023-01-26T10:24:32;102515.44;;;15.58;43.89
76397;BME280;66045;51.622;5.526;2023-01-26T10:26:59;102525.16;;;15.59;44.04
76397;BME280;66045;51.622;5.526;2023-01-26T10:29:24;102518.97;;;15.59;44.00
76397;BME280;66045;51.622;5.526;2023-01-26T10:31:49;102522.50;;;15.58;43.85
76397;BME280;66045;51.622;5.526;2023-01-26T10:34:21;102523.38;;;15.57;44.02
76397;BME280;66045;51.622;5.526;2023-01-26T10:36:47;102523.38;;;15.57;43.92
76397;BME280;66045;51.622;5.526;2023-01-26T10:39:15;102532.25;;;15.57;44.02
76397;BME280;66045;51.622;5.526;2023-01-26T10:41:58;102531.34;;;15.57;43.93
76397;BME280;66045;51.622;5.526;2023-01-26T10:44:33;102533.09;;;15.56;43.88
76397;BME280;66045;51.622;5.526;2023-01-26T10:47:13;102526.91;;;15.56;43.82
76397;BME280;66045;51.622;5.526;2023-01-26T10:49:39;102532.22;;;15.56;44.11
76397;BME280;66045;51.622;5.526;2023-01-26T10:52:22;102524.22;;;15.54;43.98
76397;BME280;66045;51.622;5.526;2023-01-26T10:55:18;102534.00;;;15.57;43.99
76397;BME280;66045;51.622;5.526;2023-01-26T10:57:45;102534.88;;;15.56;44.13
76397;BME280;66045;51.622;5.526;2023-01-26T11:02:50;102526.00;;;15.54;44.15
76397;BME280;66045;51.622;5.526;2023-01-26T11:05:22;102519.81;;;15.53;44.15
76397;BME280;66045;51.622;5.526;2023-01-26T11:07:53;102531.31;;;15.54;44.17
76397;BME280;66045;51.622;5.526;2023-01-26T11:13:20;102520.69;;;15.54;44.10
76397;BME280;66045;51.622;5.526;2023-01-26T11:16:13;102524.22;;;15.54;44.23
76397;BME280;66045;51.622;5.526;2023-01-26T11:21:27;102516.28;;;15.53;44.42
76397;BME280;66045;51.622;5.526;2023-01-26T11:24:03;102523.34;;;15.52;44.50
76397;BME280;66045;51.622;5.526;2023-01-26T11:34:48;102540.13;;;15.51;44.55
76397;BME280;66045;51.622;5.526;2023-01-26T11:37:37;102526.00;;;15.52;44.55
76397;BME280;66045;51.622;5.526;2023-01-26T11:40:27;102514.50;;;15.52;44.62
76397;BME280;66045;51.622;5.526;2023-01-26T11:43:02;102515.34;;;15.51;44.63
76397;BME280;66045;51.622;5.526;2023-01-26T11:51:31;102511.84;;;15.52;44.83
76397;BME280;66045;51.622;5.526;2023-01-26T11:54:12;102503.84;;;15.50;44.93
76397;BME280;66045;51.622;5.526;2023-01-26T11:59:26;102502.09;;;15.51;45.13
76397;BME280;66045;51.622;5.526;2023-01-26T12:05:19;102500.31;;;15.51;45.18
76397;BME280;66045;51.622;5.526;2023-01-26T12:08:05;102494.16;;;15.52;45.28
76397;BME280;66045;51.622;5.526;2023-01-26T12:10:50;102486.16;;;15.51;45.62
76397;BME280;66045;51.622;5.526;2023-01-26T12:13:39;102495.00;;;15.51;45.93
76397;BME280;66045;51.622;5.526;2023-01-26T12:16:17;102484.41;;;15.51;45.68
76397;BME280;66045;51.622;5.526;2023-01-26T12:18:53;102489.69;;;15.51;45.87
76397;BME280;66045;51.622;5.526;2023-01-26T12:21:21;102479.09;;;15.51;45.81
76397;BME280;66045;51.622;5.526;2023-01-26T12:23:56;102481.75;;;15.51;45.88
76397;BME280;66045;51.622;5.526;2023-01-26T12:26:24;102474.66;;;15.50;45.91
76397;BME280;66045;51.622;5.526;2023-01-26T12:31:26;102469.38;;;15.50;45.83
76397;BME280;66045;51.622;5.526;2023-01-26T12:33:54;102464.94;;;15.51;46.05
76397;BME280;66045;51.622;5.526;2023-01-26T12:36:56;102462.28;;;15.51;45.97
76397;BME280;66045;51.622;5.526;2023-01-26T12:39:43;102447.25;;;15.50;45.83
76397;BME280;66045;51.622;5.526;2023-01-26T12:44:55;102443.72;;;15.49;46.04
76397;BME280;66045;51.622;5.526;2023-01-26T12:47:32;102440.16;;;15.49;46.09
76397;BME280;66045;51.622;5.526;2023-01-26T12:55:04;102432.16;;;15.45;46.19
76397;BME280;66045;51.622;5.526;2023-01-26T12:57:39;102435.72;;;15.48;46.17
76397;BME280;66045;51.622;5.526;2023-01-26T13:02:45;102437.50;;;15.47;46.26
76397;BME280;66045;51.622;5.526;2023-01-26T13:05:23;102430.47;;;15.52;45.69
76397;BME280;66045;51.622;5.526;2023-01-26T13:07:48;102437.50;;;15.47;46.13
76397;BME280;66045;51.622;5.526;2023-01-26T13:12:58;102426.84;;;15.45;46.13
76397;BME280;66045;51.622;5.526;2023-01-26T13:15:27;102423.31;;;15.45;46.14
76397;BME280;66045;51.622;5.526;2023-01-26T13:17:59;102426.84;;;15.45;46.00
76397;BME280;66045;51.622;5.526;2023-01-26T13:20:45;102423.34;;;15.47;45.90
76397;BME280;66045;51.622;5.526;2023-01-26T13:23:36;102433.06;;;15.46;45.97
76397;BME280;66045;51.622;5.526;2023-01-26T13:26:17;102436.59;;;15.45;46.01
76397;BME280;66045;51.622;5.526;2023-01-26T13:28:45;102427.72;;;15.43;46.07
76397;BME280;66045;51.622;5.526;2023-01-26T13:31:11;102430.38;;;15.43;46.04
76397;BME280;66045;51.622;5.526;2023-01-26T13:33:39;102424.19;;;15.42;46.16
76397;BME280;66045;51.622;5.526;2023-01-26T13:36:13;102424.19;;;15.42;46.12
76397;BME280;66045;51.622;5.526;2023-01-26T13:38:53;102423.28;;;15.42;46.00
76397;BME280;66045;51.622;5.526;2023-01-26T13:41:21;102419.75;;;15.41;45.90
76397;BME280;66045;51.622;5.526;2023-01-26T13:44:14;102426.84;;;15.41;45.99
76397;BME280;66045;51.622;5.526;2023-01-26T13:46:51;102423.28;;;15.42;45.73
76397;BME280;66045;51.622;5.526;2023-01-26T13:51:52;102415.34;;;15.40;45.83
76397;BME280;66045;51.622;5.526;2023-01-26T13:54:18;102412.66;;;15.39;46.00
76397;BME280;66045;51.622;5.526;2023-01-26T13:57:04;102409.16;;;15.41;45.92
76397;BME280;66045;51.622;5.526;2023-01-26T13:59:30;102420.63;;;15.39;45.88
76397;BME280;66045;51.622;5.526;2023-01-26T14:01:57;102423.28;;;15.39;45.91